sensor_id;sensor_type;location;lat;lon;timestamp;P1;durP1;ratioP1;P2;durP2;ratioP2
51836;SDS011;38941;53.254;6.600;2023-06-14T00:01:42;3.95;;;1.30;;
51836;SDS011;38941;53.254;6.600;2023-06-14T00:03:46;7.65;;;2.50;;
51836;SDS011;38941;53.254;6.600;2023-06-14T00:05:48;8.15;;;1.75;;
51836;SDS011;38941;53.254;6.600;2023-06-14T00:07:50;1.73;;;1.13;;
51836;SDS011;38941;53.254;6.600;2023-06-14T00:09:53;2.10;;;1.23;;
51836;SDS011;38941;53.254;6.600;2023-06-14T00:11:54;3.78;;;1.30;;
51836;SDS011;38941;53.254;6.600;2023-06-14T00:13:54;6.05;;;1.30;;
51836;SDS011;38941;53.254;6.600;2023-06-14T00:15:56;1.85;;;1.20;;
51836;SDS011;38941;53.254;6.600;2023-06-14T00:17:58;2.30;;;1.10;;
51836;SDS011;38941;53.254;6.600;2023-06-14T00:20:02;3.67;;;1.48;;
51836;SDS011;38941;53.254;6.600;2023-06-14T00:22:06;3.25;;;1.40;;
51836;SDS011;38941;53.254;6.600;2023-06-14T00:24:07;4.13;;;1.55;;
51836;SDS011;38941;53.254;6.600;2023-06-14T00:26:08;5.68;;;1.40;;
51836;SDS011;38941;53.254;6.600;2023-06-14T00:28:09;2.83;;;1.30;;
51836;SDS011;38941;53.254;6.600;2023-06-14T00:30:10;4.82;;;1.30;;
51836;SDS011;38941;53.254;6.600;2023-06-14T00:32:18;1.98;;;1.30;;
51836;SDS011;38941;53.254;6.600;2023-06-14T00:34:19;3.92;;;1.10;;
51836;SDS011;38941;53.254;6.600;2023-06-14T00:36:20;4.28;;;1.20;;
51836;SDS011;38941;53.254;6.600;2023-06-14T00:38:20;2.55;;;1.25;;
51836;SDS011;38941;53.254;6.600;2023-06-14T00:40:21;1.65;;;1.10;;
51836;SDS011;38941;53.254;6.600;2023-06-14T00:42:23;5.05;;;1.08;;
51836;SDS011;38941;53.254;6.600;2023-06-14T00:44:28;3.70;;;1.50;;
51836;SDS011;38941;53.254;6.600;2023-06-14T00:46:28;3.50;;;1.10;;
51836;SDS011;38941;53.254;6.600;2023-06-14T00:48:29;3.90;;;1.13;;
51836;SDS011;38941;53.254;6.600;2023-06-14T00:50:32;2.95;;;0.95;;
51836;SDS011;38941;53.254;6.600;2023-06-14T00:52:35;5.22;;;1.40;;
51836;SDS011;38941;53.254;6.600;2023-06-14T00:54:36;2.70;;;0.95;;
51836;SDS011;38941;53.254;6.600;2023-06-14T00:56:43;4.45;;;1.20;;
51836;SDS011;38941;53.254;6.600;2023-06-14T00:58:44;9.48;;;1.20;;
51836;SDS011;38941;53.254;6.600;2023-06-14T01:00:45;6.15;;;1.95;;
51836;SDS011;38941;53.254;6.600;2023-06-14T01:02:46;3.95;;;1.50;;
51836;SDS011;38941;53.254;6.600;2023-06-14T01:04:47;3.80;;;1.00;;
51836;SDS011;38941;53.254;6.600;2023-06-14T01:14:02;4.97;;;1.17;;
51836;SDS011;38941;53.254;6.600;2023-06-14T01:16:05;4.30;;;1.23;;
51836;SDS011;38941;53.254;6.600;2023-06-14T01:18:08;3.55;;;0.98;;
51836;SDS011;38941;53.254;6.600;2023-06-14T01:22:20;1.63;;;1.00;;
51836;SDS011;38941;53.254;6.600;2023-06-14T01:24:24;3.67;;;1.55;;
51836;SDS011;38941;53.254;6.600;2023-06-14T01:26:25;1.42;;;0.88;;
51836;SDS011;38941;53.254;6.600;2023-06-14T01:28:29;4.95;;;1.15;;
51836;SDS011;38941;53.254;6.600;2023-06-14T01:30:34;1.60;;;1.15;;
51836;SDS011;38941;53.254;6.600;2023-06-14T01:32:35;5.15;;;1.13;;
51836;SDS011;38941;53.254;6.600;2023-06-14T01:34:36;3.45;;;1.42;;
51836;SDS011;38941;53.254;6.600;2023-06-14T01:36:37;3.88;;;1.10;;
51836;SDS011;38941;53.254;6.600;2023-06-14T01:38:40;4.32;;;1.25;;
51836;SDS011;38941;53.254;6.600;2023-06-14T01:40:44;2.95;;;1.20;;
51836;SDS011;38941;53.254;6.600;2023-06-14T01:42:46;2.47;;;1.00;;
51836;SDS011;38941;53.254;6.600;2023-06-14T01:44:50;3.17;;;1.25;;
51836;SDS011;38941;53.254;6.600;2023-06-14T01:46:52;1.88;;;1.13;;
51836;SDS011;38941;53.254;6.600;2023-06-14T01:48:53;5.55;;;1.85;;
51836;SDS011;38941;53.254;6.600;2023-06-14T01:50:57;2.85;;;1.15;;
51836;SDS011;38941;53.254;6.600;2023-06-14T01:52:58;2.03;;;1.30;;
51836;SDS011;38941;53.254;6.600;2023-06-14T01:55:00;4.05;;;1.30;;
51836;SDS011;38941;53.254;6.600;2023-06-14T01:57:02;2.42;;;1.20;;
51836;SDS011;38941;53.254;6.600;2023-06-14T01:59:03;3.45;;;1.73;;
51836;SDS011;38941;53.254;6.600;2023-06-14T02:01:04;2.30;;;1.20;;
51836;SDS011;38941;53.254;6.600;2023-06-14T02:03:05;5.53;;;1.10;;
51836;SDS011;38941;53.254;6.600;2023-06-14T02:05:06;2.08;;;1.10;;
51836;SDS011;38941;53.254;6.600;2023-06-14T02:07:07;5.70;;;1.20;;
51836;SDS011;38941;53.254;6.600;2023-06-14T02:09:08;2.83;;;1.02;;
51836;SDS011;38941;53.254;6.600;2023-06-14T02:11:09;5.43;;;1.20;;
51836;SDS011;38941;53.254;6.600;2023-06-14T02:13:10;3.97;;;1.60;;
51836;SDS011;38941;53.254;6.600;2023-06-14T02:15:11;4.22;;;1.35;;
51836;SDS011;38941;53.254;6.600;2023-06-14T02:17:19;7.65;;;1.55;;
51836;SDS011;38941;53.254;6.600;2023-06-14T02:19:22;1.95;;;1.23;;
51836;SDS011;38941;53.254;6.600;2023-06-14T02:21:23;2.95;;;1.58;;
51836;SDS011;38941;53.254;6.600;2023-06-14T02:23:23;2.22;;;1.23;;
51836;SDS011;38941;53.254;6.600;2023-06-14T02:25:24;3.58;;;1.50;;
51836;SDS011;38941;53.254;6.600;2023-06-14T02:27:27;3.35;;;1.08;;
51836;SDS011;38941;53.254;6.600;2023-06-14T02:29:28;2.88;;;1.27;;
51836;SDS011;38941;53.254;6.600;2023-06-14T02:31:29;5.93;;;1.63;;
51836;SDS011;38941;53.254;6.600;2023-06-14T02:33:31;5.72;;;1.63;;
51836;SDS011;38941;53.254;6.600;2023-06-14T02:35:32;2.15;;;1.15;;
51836;SDS011;38941;53.254;6.600;2023-06-14T02:37:33;3.72;;;1.50;;
51836;SDS011;38941;53.254;6.600;2023-06-14T02:39:35;2.28;;;1.10;;
51836;SDS011;38941;53.254;6.600;2023-06-14T02:41:36;2.55;;;1.40;;
51836;SDS011;38941;53.254;6.600;2023-06-14T02:43:38;1.95;;;1.35;;
51836;SDS011;38941;53.254;6.600;2023-06-14T02:45:39;3.40;;;1.42;;
51836;SDS011;38941;53.254;6.600;2023-06-14T02:47:42;3.83;;;1.83;;
51836;SDS011;38941;53.254;6.600;2023-06-14T02:49:43;3.40;;;1.45;;
51836;SDS011;38941;53.254;6.600;2023-06-14T02:51:46;2.15;;;1.55;;
51836;SDS011;38941;53.254;6.600;2023-06-14T02:53:47;6.35;;;1.88;;
51836;SDS011;38941;53.254;6.600;2023-06-14T02:55:48;4.57;;;1.30;;
51836;SDS011;38941;53.254;6.600;2023-06-14T02:57:49;2.88;;;1.40;;
51836;SDS011;38941;53.254;6.600;2023-06-14T02:59:54;6.38;;;1.27;;
51836;SDS011;38941;53.254;6.600;2023-06-14T03:01:56;4.00;;;1.42;;
51836;SDS011;38941;53.254;6.600;2023-06-14T03:03:57;4.15;;;1.65;;
51836;SDS011;38941;53.254;6.600;2023-06-14T03:05:58;2.88;;;1.58;;
51836;SDS011;38941;53.254;6.600;2023-06-14T03:08:05;3.90;;;1.42;;
51836;SDS011;38941;53.254;6.600;2023-06-14T03:10:05;3.33;;;1.27;;
51836;SDS011;38941;53.254;6.600;2023-06-14T03:12:10;1.83;;;1.50;;
51836;SDS011;38941;53.254;6.600;2023-06-14T03:14:11;3.25;;;1.58;;
51836;SDS011;38941;53.254;6.600;2023-06-14T03:16:13;2.28;;;1.30;;
51836;SDS011;38941;53.254;6.600;2023-06-14T03:18:14;4.75;;;1.52;;
51836;SDS011;38941;53.254;6.600;2023-06-14T03:20:15;2.97;;;1.52;;
51836;SDS011;38941;53.254;6.600;2023-06-14T03:22:17;4.13;;;1.52;;
51836;SDS011;38941;53.254;6.600;2023-06-14T03:24:19;2.42;;;1.50;;
51836;SDS011;38941;53.254;6.600;2023-06-14T03:26:20;3.33;;;1.58;;
51836;SDS011;38941;53.254;6.600;2023-06-14T03:28:22;3.33;;;1.70;;
51836;SDS011;38941;53.254;6.600;2023-06-14T03:30:24;6.57;;;1.55;;
51836;SDS011;38941;53.254;6.600;2023-06-14T03:32:24;6.03;;;1.90;;
51836;SDS011;38941;53.254;6.600;2023-06-14T03:34:25;6.65;;;1.75;;
51836;SDS011;38941;53.254;6.600;2023-06-14T03:36:26;2.55;;;1.42;;
51836;SDS011;38941;53.254;6.600;2023-06-14T03:38:30;3.95;;;1.55;;
51836;SDS011;38941;53.254;6.600;2023-06-14T03:40:31;4.25;;;1.90;;
51836;SDS011;38941;53.254;6.600;2023-06-14T03:42:32;6.35;;;1.45;;
51836;SDS011;38941;53.254;6.600;2023-06-14T03:44:33;5.22;;;1.80;;
51836;SDS011;38941;53.254;6.600;2023-06-14T03:46:34;3.80;;;1.80;;
51836;SDS011;38941;53.254;6.600;2023-06-14T03:48:35;6.47;;;1.67;;
51836;SDS011;38941;53.254;6.600;2023-06-14T03:50:36;2.67;;;1.67;;
51836;SDS011;38941;53.254;6.600;2023-06-14T03:52:40;3.63;;;1.80;;
51836;SDS011;38941;53.254;6.600;2023-06-14T03:54:43;2.33;;;1.42;;
51836;SDS011;38941;53.254;6.600;2023-06-14T03:56:44;3.40;;;2.08;;
51836;SDS011;38941;53.254;6.600;2023-06-14T04:00:49;3.83;;;1.55;;
51836;SDS011;38941;53.254;6.600;2023-06-14T04:02:50;2.50;;;1.50;;
51836;SDS011;38941;53.254;6.600;2023-06-14T04:04:51;5.60;;;2.10;;
51836;SDS011;38941;53.254;6.600;2023-06-14T04:06:55;8.07;;;1.90;;
51836;SDS011;38941;53.254;6.600;2023-06-14T04:09:00;3.38;;;1.60;;
51836;SDS011;38941;53.254;6.600;2023-06-14T04:11:02;4.80;;;1.67;;
51836;SDS011;38941;53.254;6.600;2023-06-14T04:13:03;4.35;;;1.70;;
51836;SDS011;38941;53.254;6.600;2023-06-14T04:15:05;2.80;;;1.52;;
51836;SDS011;38941;53.254;6.600;2023-06-14T04:17:08;6.68;;;1.80;;
51836;SDS011;38941;53.254;6.600;2023-06-14T04:19:09;4.90;;;1.98;;
51836;SDS011;38941;53.254;6.600;2023-06-14T04:21:10;6.40;;;1.98;;
51836;SDS011;38941;53.254;6.600;2023-06-14T04:23:17;5.60;;;2.03;;
51836;SDS011;38941;53.254;6.600;2023-06-14T04:25:18;2.40;;;1.75;;
51836;SDS011;38941;53.254;6.600;2023-06-14T04:27:20;4.93;;;2.00;;
51836;SDS011;38941;53.254;6.600;2023-06-14T04:29:33;4.78;;;1.85;;
51836;SDS011;38941;53.254;6.600;2023-06-14T04:31:35;3.22;;;1.83;;
51836;SDS011;38941;53.254;6.600;2023-06-14T04:33:39;2.65;;;1.75;;
51836;SDS011;38941;53.254;6.600;2023-06-14T04:35:43;4.78;;;2.00;;
51836;SDS011;38941;53.254;6.600;2023-06-14T04:37:47;3.70;;;1.85;;
51836;SDS011;38941;53.254;6.600;2023-06-14T04:39:48;2.95;;;1.58;;
51836;SDS011;38941;53.254;6.600;2023-06-14T04:41:50;4.88;;;1.60;;
51836;SDS011;38941;53.254;6.600;2023-06-14T04:44:00;4.50;;;1.85;;
51836;SDS011;38941;53.254;6.600;2023-06-14T04:46:01;8.95;;;2.63;;
51836;SDS011;38941;53.254;6.600;2023-06-14T04:48:03;4.57;;;1.95;;
51836;SDS011;38941;53.254;6.600;2023-06-14T04:50:06;4.68;;;2.25;;
51836;SDS011;38941;53.254;6.600;2023-06-14T04:52:06;3.83;;;2.00;;
51836;SDS011;38941;53.254;6.600;2023-06-14T04:54:12;2.78;;;1.60;;
51836;SDS011;38941;53.254;6.600;2023-06-14T04:56:14;19.08;;;2.92;;
51836;SDS011;38941;53.254;6.600;2023-06-14T04:58:15;5.95;;;2.25;;
51836;SDS011;38941;53.254;6.600;2023-06-14T05:00:16;3.72;;;1.95;;
51836;SDS011;38941;53.254;6.600;2023-06-14T05:02:18;8.57;;;2.28;;
51836;SDS011;38941;53.254;6.600;2023-06-14T05:04:19;3.70;;;1.77;;
51836;SDS011;38941;53.254;6.600;2023-06-14T05:06:21;3.67;;;2.15;;
51836;SDS011;38941;53.254;6.600;2023-06-14T05:08:23;5.03;;;1.90;;
51836;SDS011;38941;53.254;6.600;2023-06-14T05:10:24;4.30;;;1.83;;
51836;SDS011;38941;53.254;6.600;2023-06-14T05:12:25;6.43;;;2.08;;
51836;SDS011;38941;53.254;6.600;2023-06-14T05:14:26;3.38;;;1.63;;
51836;SDS011;38941;53.254;6.600;2023-06-14T05:16:26;5.63;;;2.53;;
51836;SDS011;38941;53.254;6.600;2023-06-14T05:18:29;5.15;;;1.98;;
51836;SDS011;38941;53.254;6.600;2023-06-14T05:20:30;3.75;;;2.10;;
51836;SDS011;38941;53.254;6.600;2023-06-14T05:22:30;5.18;;;2.22;;
51836;SDS011;38941;53.254;6.600;2023-06-14T05:24:31;7.75;;;2.08;;
51836;SDS011;38941;53.254;6.600;2023-06-14T05:26:33;5.15;;;1.95;;
51836;SDS011;38941;53.254;6.600;2023-06-14T05:28:34;4.32;;;2.45;;
51836;SDS011;38941;53.254;6.600;2023-06-14T05:30:37;6.40;;;2.38;;
51836;SDS011;38941;53.254;6.600;2023-06-14T05:32:41;3.90;;;1.67;;
51836;SDS011;38941;53.254;6.600;2023-06-14T05:34:42;8.02;;;2.92;;
51836;SDS011;38941;53.254;6.600;2023-06-14T05:36:45;8.38;;;2.10;;
51836;SDS011;38941;53.254;6.600;2023-06-14T05:38:47;7.25;;;1.88;;
51836;SDS011;38941;53.254;6.600;2023-06-14T05:40:48;4.13;;;1.83;;
51836;SDS011;38941;53.254;6.600;2023-06-14T05:42:52;9.75;;;2.83;;
51836;SDS011;38941;53.254;6.600;2023-06-14T05:44:54;6.68;;;2.47;;
51836;SDS011;38941;53.254;6.600;2023-06-14T05:46:55;4.40;;;2.47;;
51836;SDS011;38941;53.254;6.600;2023-06-14T05:48:56;4.40;;;2.08;;
51836;SDS011;38941;53.254;6.600;2023-06-14T05:50:59;4.43;;;1.88;;
51836;SDS011;38941;53.254;6.600;2023-06-14T05:53:01;3.22;;;1.85;;
51836;SDS011;38941;53.254;6.600;2023-06-14T05:55:02;8.00;;;1.90;;
51836;SDS011;38941;53.254;6.600;2023-06-14T05:57:04;6.10;;;2.05;;
51836;SDS011;38941;53.254;6.600;2023-06-14T05:59:06;5.60;;;2.50;;
51836;SDS011;38941;53.254;6.600;2023-06-14T06:01:07;3.83;;;2.08;;
51836;SDS011;38941;53.254;6.600;2023-06-14T06:03:07;3.22;;;2.20;;
51836;SDS011;38941;53.254;6.600;2023-06-14T06:05:09;4.28;;;2.40;;
51836;SDS011;38941;53.254;6.600;2023-06-14T06:07:12;8.57;;;2.10;;
51836;SDS011;38941;53.254;6.600;2023-06-14T06:09:13;6.55;;;2.53;;
51836;SDS011;38941;53.254;6.600;2023-06-14T06:11:16;6.47;;;2.35;;
51836;SDS011;38941;53.254;6.600;2023-06-14T06:13:16;6.38;;;2.38;;
51836;SDS011;38941;53.254;6.600;2023-06-14T06:15:17;4.97;;;2.88;;
51836;SDS011;38941;53.254;6.600;2023-06-14T06:17:18;6.25;;;2.17;;
51836;SDS011;38941;53.254;6.600;2023-06-14T06:19:19;5.68;;;2.55;;
51836;SDS011;38941;53.254;6.600;2023-06-14T06:21:20;2.95;;;2.00;;
51836;SDS011;38941;53.254;6.600;2023-06-14T06:23:22;6.18;;;2.03;;
51836;SDS011;38941;53.254;6.600;2023-06-14T06:25:25;3.92;;;2.10;;
51836;SDS011;38941;53.254;6.600;2023-06-14T06:27:26;3.47;;;2.38;;
51836;SDS011;38941;53.254;6.600;2023-06-14T06:29:27;4.03;;;1.98;;
51836;SDS011;38941;53.254;6.600;2023-06-14T06:31:28;3.80;;;1.98;;
51836;SDS011;38941;53.254;6.600;2023-06-14T06:33:30;11.38;;;3.58;;
51836;SDS011;38941;53.254;6.600;2023-06-14T06:35:30;8.88;;;2.42;;
51836;SDS011;38941;53.254;6.600;2023-06-14T06:37:33;2.78;;;1.77;;
51836;SDS011;38941;53.254;6.600;2023-06-14T06:39:35;4.80;;;1.95;;
51836;SDS011;38941;53.254;6.600;2023-06-14T06:41:39;6.13;;;2.33;;
51836;SDS011;38941;53.254;6.600;2023-06-14T06:43:40;6.57;;;2.20;;
51836;SDS011;38941;53.254;6.600;2023-06-14T06:45:40;5.75;;;1.83;;
51836;SDS011;38941;53.254;6.600;2023-06-14T06:47:42;4.88;;;1.92;;
51836;SDS011;38941;53.254;6.600;2023-06-14T06:49:43;3.25;;;1.80;;
51836;SDS011;38941;53.254;6.600;2023-06-14T06:51:52;4.15;;;1.80;;
51836;SDS011;38941;53.254;6.600;2023-06-14T06:54:03;9.80;;;2.25;;
51836;SDS011;38941;53.254;6.600;2023-06-14T06:56:03;7.22;;;2.15;;
51836;SDS011;38941;53.254;6.600;2023-06-14T06:58:05;3.67;;;2.13;;
51836;SDS011;38941;53.254;6.600;2023-06-14T07:00:06;6.40;;;1.77;;
51836;SDS011;38941;53.254;6.600;2023-06-14T07:04:13;5.78;;;1.85;;
51836;SDS011;38941;53.254;6.600;2023-06-14T07:06:13;2.90;;;1.67;;
51836;SDS011;38941;53.254;6.600;2023-06-14T07:08:17;3.75;;;1.98;;
51836;SDS011;38941;53.254;6.600;2023-06-14T07:10:19;6.43;;;2.03;;
51836;SDS011;38941;53.254;6.600;2023-06-14T07:12:20;8.90;;;2.88;;
51836;SDS011;38941;53.254;6.600;2023-06-14T07:14:20;4.50;;;1.95;;
51836;SDS011;38941;53.254;6.600;2023-06-14T07:16:24;6.97;;;2.22;;
51836;SDS011;38941;53.254;6.600;2023-06-14T07:18:26;3.53;;;1.73;;
51836;SDS011;38941;53.254;6.600;2023-06-14T07:20:29;3.75;;;1.65;;
51836;SDS011;38941;53.254;6.600;2023-06-14T07:22:31;2.65;;;1.58;;
51836;SDS011;38941;53.254;6.600;2023-06-14T07:24:31;8.70;;;2.67;;
51836;SDS011;38941;53.254;6.600;2023-06-14T07:26:32;2.70;;;1.42;;
51836;SDS011;38941;53.254;6.600;2023-06-14T07:28:34;4.93;;;1.85;;
51836;SDS011;38941;53.254;6.600;2023-06-14T07:30:41;9.00;;;1.80;;
51836;SDS011;38941;53.254;6.600;2023-06-14T07:32:42;3.83;;;1.70;;
51836;SDS011;38941;53.254;6.600;2023-06-14T07:34:44;6.10;;;1.90;;
51836;SDS011;38941;53.254;6.600;2023-06-14T07:36:44;1.92;;;1.27;;
51836;SDS011;38941;53.254;6.600;2023-06-14T07:38:46;7.97;;;1.90;;
51836;SDS011;38941;53.254;6.600;2023-06-14T07:40:47;6.00;;;1.98;;
51836;SDS011;38941;53.254;6.600;2023-06-14T07:42:47;5.55;;;1.60;;
51836;SDS011;38941;53.254;6.600;2023-06-14T07:44:54;3.42;;;1.52;;
51836;SDS011;38941;53.254;6.600;2023-06-14T07:46:56;4.63;;;1.70;;
51836;SDS011;38941;53.254;6.600;2023-06-14T07:48:59;6.03;;;1.65;;
51836;SDS011;38941;53.254;6.600;2023-06-14T07:51:00;5.65;;;1.52;;
51836;SDS011;38941;53.254;6.600;2023-06-14T07:53:01;4.57;;;1.98;;
51836;SDS011;38941;53.254;6.600;2023-06-14T07:55:02;3.85;;;1.55;;
51836;SDS011;38941;53.254;6.600;2023-06-14T07:57:03;8.27;;;2.15;;
51836;SDS011;38941;53.254;6.600;2023-06-14T07:59:04;2.55;;;1.35;;
51836;SDS011;38941;53.254;6.600;2023-06-14T08:01:06;3.67;;;1.50;;
51836;SDS011;38941;53.254;6.600;2023-06-14T08:03:08;6.35;;;1.65;;
51836;SDS011;38941;53.254;6.600;2023-06-14T08:05:09;3.42;;;1.67;;
51836;SDS011;38941;53.254;6.600;2023-06-14T08:07:14;24.17;;;2.95;;
51836;SDS011;38941;53.254;6.600;2023-06-14T08:09:15;3.55;;;1.50;;
51836;SDS011;38941;53.254;6.600;2023-06-14T08:11:16;3.08;;;1.95;;
51836;SDS011;38941;53.254;6.600;2023-06-14T08:13:17;2.50;;;1.30;;
51836;SDS011;38941;53.254;6.600;2023-06-14T08:15:18;2.85;;;1.58;;
51836;SDS011;38941;53.254;6.600;2023-06-14T08:17:19;4.50;;;2.30;;
51836;SDS011;38941;53.254;6.600;2023-06-14T08:19:20;2.22;;;1.42;;
51836;SDS011;38941;53.254;6.600;2023-06-14T08:21:21;3.55;;;1.48;;
51836;SDS011;38941;53.254;6.600;2023-06-14T08:23:22;5.40;;;1.90;;
51836;SDS011;38941;53.254;6.600;2023-06-14T08:25:22;3.95;;;1.30;;
51836;SDS011;38941;53.254;6.600;2023-06-14T08:27:24;4.60;;;1.65;;
51836;SDS011;38941;53.254;6.600;2023-06-14T08:29:25;5.10;;;1.75;;
51836;SDS011;38941;53.254;6.600;2023-06-14T08:31:29;2.85;;;1.65;;
51836;SDS011;38941;53.254;6.600;2023-06-14T08:33:31;2.75;;;1.58;;
51836;SDS011;38941;53.254;6.600;2023-06-14T08:35:36;5.95;;;1.90;;
51836;SDS011;38941;53.254;6.600;2023-06-14T08:37:40;4.22;;;1.48;;
51836;SDS011;38941;53.254;6.600;2023-06-14T08:39:43;3.53;;;1.65;;
51836;SDS011;38941;53.254;6.600;2023-06-14T08:41:46;2.55;;;1.42;;
51836;SDS011;38941;53.254;6.600;2023-06-14T08:43:48;4.95;;;1.38;;
51836;SDS011;38941;53.254;6.600;2023-06-14T08:45:50;5.60;;;1.50;;
51836;SDS011;38941;53.254;6.600;2023-06-14T08:47:57;3.17;;;1.50;;
51836;SDS011;38941;53.254;6.600;2023-06-14T08:49:59;2.00;;;1.27;;
51836;SDS011;38941;53.254;6.600;2023-06-14T08:52:00;3.50;;;1.38;;
51836;SDS011;38941;53.254;6.600;2023-06-14T08:54:01;3.05;;;1.52;;
51836;SDS011;38941;53.254;6.600;2023-06-14T08:56:04;8.70;;;1.50;;
51836;SDS011;38941;53.254;6.600;2023-06-14T08:58:07;3.75;;;1.50;;
51836;SDS011;38941;53.254;6.600;2023-06-14T09:00:09;5.82;;;1.92;;
51836;SDS011;38941;53.254;6.600;2023-06-14T09:02:12;4.28;;;1.50;;
51836;SDS011;38941;53.254;6.600;2023-06-14T09:04:14;4.60;;;1.55;;
51836;SDS011;38941;53.254;6.600;2023-06-14T09:06:15;2.30;;;1.50;;
51836;SDS011;38941;53.254;6.600;2023-06-14T09:08:18;2.97;;;1.40;;
51836;SDS011;38941;53.254;6.600;2023-06-14T09:10:22;3.90;;;1.55;;
51836;SDS011;38941;53.254;6.600;2023-06-14T09:12:23;7.68;;;1.70;;
51836;SDS011;38941;53.254;6.600;2023-06-14T09:14:25;3.25;;;1.35;;
51836;SDS011;38941;53.254;6.600;2023-06-14T09:16:27;13.70;;;1.55;;
51836;SDS011;38941;53.254;6.600;2023-06-14T09:18:34;8.07;;;1.40;;
51836;SDS011;38941;53.254;6.600;2023-06-14T09:20:36;3.22;;;1.35;;
51836;SDS011;38941;53.254;6.600;2023-06-14T09:22:39;2.25;;;1.20;;
51836;SDS011;38941;53.254;6.600;2023-06-14T09:24:41;4.53;;;1.15;;
51836;SDS011;38941;53.254;6.600;2023-06-14T09:26:41;3.20;;;1.50;;
51836;SDS011;38941;53.254;6.600;2023-06-14T09:30:47;3.65;;;1.38;;
51836;SDS011;38941;53.254;6.600;2023-06-14T09:32:48;1.98;;;1.38;;
51836;SDS011;38941;53.254;6.600;2023-06-14T09:34:50;6.10;;;1.30;;
51836;SDS011;38941;53.254;6.600;2023-06-14T09:36:53;4.95;;;1.48;;
51836;SDS011;38941;53.254;6.600;2023-06-14T09:38:58;2.75;;;1.23;;
51836;SDS011;38941;53.254;6.600;2023-06-14T09:41:00;3.40;;;1.60;;
51836;SDS011;38941;53.254;6.600;2023-06-14T09:43:07;4.88;;;1.52;;
51836;SDS011;38941;53.254;6.600;2023-06-14T09:45:09;4.03;;;1.60;;
51836;SDS011;38941;53.254;6.600;2023-06-14T09:47:12;5.75;;;1.50;;
51836;SDS011;38941;53.254;6.600;2023-06-14T09:49:15;2.28;;;1.60;;
51836;SDS011;38941;53.254;6.600;2023-06-14T09:51:16;6.18;;;1.35;;
51836;SDS011;38941;53.254;6.600;2023-06-14T09:53:20;2.42;;;1.30;;
51836;SDS011;38941;53.254;6.600;2023-06-14T09:55:25;3.67;;;1.40;;
51836;SDS011;38941;53.254;6.600;2023-06-14T09:57:30;3.22;;;1.15;;
51836;SDS011;38941;53.254;6.600;2023-06-14T09:59:33;8.95;;;1.58;;
51836;SDS011;38941;53.254;6.600;2023-06-14T10:01:43;4.80;;;1.38;;
51836;SDS011;38941;53.254;6.600;2023-06-14T10:03:45;8.32;;;1.35;;
51836;SDS011;38941;53.254;6.600;2023-06-14T10:05:49;1.65;;;1.15;;
51836;SDS011;38941;53.254;6.600;2023-06-14T10:09:56;2.47;;;1.10;;
51836;SDS011;38941;53.254;6.600;2023-06-14T10:11:57;2.03;;;1.20;;
51836;SDS011;38941;53.254;6.600;2023-06-14T10:13:58;2.80;;;1.20;;
51836;SDS011;38941;53.254;6.600;2023-06-14T10:18:16;4.50;;;1.98;;
51836;SDS011;38941;53.254;6.600;2023-06-14T10:20:55;2.05;;;1.20;;
51836;SDS011;38941;53.254;6.600;2023-06-14T10:23:22;3.17;;;1.33;;
51836;SDS011;38941;53.254;6.600;2023-06-14T10:25:30;4.20;;;1.48;;
51836;SDS011;38941;53.254;6.600;2023-06-14T10:27:33;3.22;;;1.50;;
51836;SDS011;38941;53.254;6.600;2023-06-14T10:30:01;3.20;;;1.50;;
51836;SDS011;38941;53.254;6.600;2023-06-14T10:31:57;2.45;;;1.45;;
51836;SDS011;38941;53.254;6.600;2023-06-14T10:33:59;1.70;;;1.10;;
51836;SDS011;38941;53.254;6.600;2023-06-14T10:38:31;3.67;;;1.40;;
51836;SDS011;38941;53.254;6.600;2023-06-14T10:40:33;1.65;;;1.13;;
51836;SDS011;38941;53.254;6.600;2023-06-14T10:42:41;3.72;;;1.40;;
51836;SDS011;38941;53.254;6.600;2023-06-14T10:44:53;3.38;;;1.27;;
51836;SDS011;38941;53.254;6.600;2023-06-14T10:46:59;5.28;;;1.52;;
51836;SDS011;38941;53.254;6.600;2023-06-14T10:49:00;4.72;;;1.55;;
51836;SDS011;38941;53.254;6.600;2023-06-14T10:51:03;4.00;;;1.35;;
51836;SDS011;38941;53.254;6.600;2023-06-14T10:53:21;3.13;;;1.40;;
51836;SDS011;38941;53.254;6.600;2023-06-14T10:55:24;5.60;;;1.30;;
51836;SDS011;38941;53.254;6.600;2023-06-14T10:57:26;6.20;;;1.20;;
51836;SDS011;38941;53.254;6.600;2023-06-14T10:59:28;2.67;;;1.23;;
51836;SDS011;38941;53.254;6.600;2023-06-14T11:01:32;3.40;;;1.60;;
51836;SDS011;38941;53.254;6.600;2023-06-14T11:03:50;4.60;;;1.45;;
51836;SDS011;38941;53.254;6.600;2023-06-14T11:05:56;6.53;;;1.20;;
51836;SDS011;38941;53.254;6.600;2023-06-14T11:10:15;5.63;;;1.25;;
51836;SDS011;38941;53.254;6.600;2023-06-14T11:12:41;4.70;;;1.30;;
51836;SDS011;38941;53.254;6.600;2023-06-14T11:14:48;4.07;;;1.30;;
51836;SDS011;38941;53.254;6.600;2023-06-14T11:16:51;3.13;;;1.45;;
51836;SDS011;38941;53.254;6.600;2023-06-14T11:18:52;2.58;;;1.23;;
51836;SDS011;38941;53.254;6.600;2023-06-14T11:20:54;3.65;;;1.40;;
51836;SDS011;38941;53.254;6.600;2023-06-14T11:22:55;2.58;;;1.40;;
51836;SDS011;38941;53.254;6.600;2023-06-14T11:24:56;3.45;;;1.17;;
51836;SDS011;38941;53.254;6.600;2023-06-14T11:27:02;5.00;;;1.45;;
51836;SDS011;38941;53.254;6.600;2023-06-14T11:29:05;2.92;;;1.33;;
51836;SDS011;38941;53.254;6.600;2023-06-14T11:31:07;2.30;;;1.20;;
51836;SDS011;38941;53.254;6.600;2023-06-14T11:33:11;5.47;;;1.15;;
51836;SDS011;38941;53.254;6.600;2023-06-14T11:35:13;5.07;;;1.20;;
51836;SDS011;38941;53.254;6.600;2023-06-14T11:37:14;3.88;;;1.58;;
51836;SDS011;38941;53.254;6.600;2023-06-14T11:39:16;3.05;;;1.00;;
51836;SDS011;38941;53.254;6.600;2023-06-14T11:41:36;3.00;;;1.17;;
51836;SDS011;38941;53.254;6.600;2023-06-14T11:43:40;2.35;;;1.27;;
51836;SDS011;38941;53.254;6.600;2023-06-14T11:45:41;1.73;;;1.00;;
51836;SDS011;38941;53.254;6.600;2023-06-14T11:47:43;3.55;;;0.90;;
51836;SDS011;38941;53.254;6.600;2023-06-14T11:49:43;1.75;;;1.00;;
51836;SDS011;38941;53.254;6.600;2023-06-14T11:51:44;4.88;;;1.42;;
51836;SDS011;38941;53.254;6.600;2023-06-14T11:53:46;1.80;;;1.25;;
51836;SDS011;38941;53.254;6.600;2023-06-14T11:55:51;2.67;;;1.10;;
51836;SDS011;38941;53.254;6.600;2023-06-14T11:57:55;2.65;;;0.90;;
51836;SDS011;38941;53.254;6.600;2023-06-14T11:59:58;2.42;;;1.05;;
51836;SDS011;38941;53.254;6.600;2023-06-14T12:02:00;4.97;;;0.95;;
51836;SDS011;38941;53.254;6.600;2023-06-14T12:04:08;1.00;;;0.80;;
51836;SDS011;38941;53.254;6.600;2023-06-14T12:06:13;4.43;;;0.93;;
51836;SDS011;38941;53.254;6.600;2023-06-14T12:08:15;2.55;;;1.10;;
51836;SDS011;38941;53.254;6.600;2023-06-14T12:10:19;5.40;;;1.20;;
51836;SDS011;38941;53.254;6.600;2023-06-14T12:12:21;1.40;;;0.88;;
51836;SDS011;38941;53.254;6.600;2023-06-14T12:14:27;2.55;;;1.00;;
51836;SDS011;38941;53.254;6.600;2023-06-14T12:16:31;1.58;;;0.90;;
51836;SDS011;38941;53.254;6.600;2023-06-14T12:18:35;3.45;;;0.93;;
51836;SDS011;38941;53.254;6.600;2023-06-14T12:20:38;2.25;;;0.90;;
51836;SDS011;38941;53.254;6.600;2023-06-14T12:22:46;3.22;;;0.73;;
51836;SDS011;38941;53.254;6.600;2023-06-14T12:24:57;2.88;;;1.08;;
51836;SDS011;38941;53.254;6.600;2023-06-14T12:26:58;4.43;;;0.88;;
51836;SDS011;38941;53.254;6.600;2023-06-14T12:29:06;1.10;;;1.00;;
51836;SDS011;38941;53.254;6.600;2023-06-14T12:31:11;3.00;;;0.98;;
51836;SDS011;38941;53.254;6.600;2023-06-14T12:33:14;2.13;;;0.93;;
51836;SDS011;38941;53.254;6.600;2023-06-14T12:35:15;2.15;;;0.82;;
51836;SDS011;38941;53.254;6.600;2023-06-14T12:37:16;3.72;;;0.90;;
51836;SDS011;38941;53.254;6.600;2023-06-14T12:39:18;1.02;;;0.80;;
51836;SDS011;38941;53.254;6.600;2023-06-14T12:41:21;4.20;;;1.33;;
51836;SDS011;38941;53.254;6.600;2023-06-14T12:43:23;3.90;;;0.90;;
51836;SDS011;38941;53.254;6.600;2023-06-14T12:45:26;3.67;;;0.90;;